sensor_id;sensor_type;location;lat;lon;timestamp;temperature;humidity
5358;DHT22;2702;51.014;7.170;2022-12-29T00:34:23;9.00;99.90
5358;DHT22;2702;51.014;7.170;2022-12-29T00:37:07;9.00;99.90
5358;DHT22;2702;51.014;7.170;2022-12-29T00:39:33;9.20;99.90
5358;DHT22;2702;51.014;7.170;2022-12-29T00:42:34;9.20;99.90
5358;DHT22;2702;51.014;7.170;2022-12-29T00:45:19;9.40;99.90
5358;DHT22;2702;51.014;7.170;2022-12-29T00:47:44;9.40;99.90
5358;DHT22;2702;51.014;7.170;2022-12-29T00:50:10;9.50;99.90
5358;DHT22;2702;51.014;7.170;2022-12-29T00:52:36;9.60;99.90
5358;DHT22;2702;51.014;7.170;2022-12-29T00:55:02;9.60;99.90
5358;DHT22;2702;51.014;7.170;2022-12-29T00:57:27;9.70;99.90
5358;DHT22;2702;51.014;7.170;2022-12-29T00:59:53;9.70;99.90
5358;DHT22;2702;51.014;7.170;2022-12-29T01:02:19;9.80;99.90
5358;DHT22;2702;51.014;7.170;2022-12-29T01:04:45;9.80;99.90
5358;DHT22;2702;51.014;7.170;2022-12-29T01:07:11;9.90;99.90
5358;DHT22;2702;51.014;7.170;2022-12-29T01:09:36;9.90;99.90
5358;DHT22;2702;51.014;7.170;2022-12-29T01:12:20;10.00;99.90
5358;DHT22;2702;51.014;7.170;2022-12-29T01:15:08;10.00;99.90
5358;DHT22;2702;51.014;7.170;2022-12-29T01:17:35;10.00;99.90
5358;DHT22;2702;51.014;7.170;2022-12-29T01:20:01;10.00;99.90
5358;DHT22;2702;51.014;7.170;2022-12-29T01:22:27;10.00;99.90
5358;DHT22;2702;51.014;7.170;2022-12-29T01:24:53;10.00;99.90
5358;DHT22;2702;51.014;7.170;2022-12-29T01:27:19;10.00;99.90
5358;DHT22;2702;51.014;7.170;2022-12-29T01:29:44;10.00;99.90
5358;DHT22;2702;51.014;7.170;2022-12-29T01:32:10;10.00;99.90
5358;DHT22;2702;51.014;7.170;2022-12-29T01:34:36;10.00;99.90
5358;DHT22;2702;51.014;7.170;2022-12-29T05:34:22;9.90;99.90
5358;DHT22;2702;51.014;7.170;2022-12-29T05:36:48;10.00;99.90
5358;DHT22;2702;51.014;7.170;2022-12-29T05:39:14;10.10;99.90
5358;DHT22;2702;51.014;7.170;2022-12-29T05:41:40;10.30;99.90
5358;DHT22;2702;51.014;7.170;2022-12-29T05:44:06;10.40;99.90
5358;DHT22;2702;51.014;7.170;2022-12-29T05:46:32;10.50;99.90
5358;DHT22;2702;51.014;7.170;2022-12-29T05:48:58;10.60;99.90
5358;DHT22;2702;51.014;7.170;2022-12-29T05:51:23;10.70;99.90
5358;DHT22;2702;51.014;7.170;2022-12-29T05:53:49;10.80;99.90
5358;DHT22;2702;51.014;7.170;2022-12-29T05:56:15;10.90;99.90
5358;DHT22;2702;51.014;7.170;2022-12-29T05:58:41;10.90;99.90
5358;DHT22;2702;51.014;7.170;2022-12-29T06:01:07;10.90;99.90
5358;DHT22;2702;51.014;7.170;2022-12-29T06:03:33;10.90;99.90
5358;DHT22;2702;51.014;7.170;2022-12-29T06:05:59;11.00;99.90
5358;DHT22;2702;51.014;7.170;2022-12-29T06:08:25;11.00;99.90
5358;DHT22;2702;51.014;7.170;2022-12-29T06:10:50;10.90;99.90
5358;DHT22;2702;51.014;7.170;2022-12-29T06:13:16;11.00;99.90
5358;DHT22;2702;51.014;7.170;2022-12-29T06:15:42;11.00;99.90
5358;DHT22;2702;51.014;7.170;2022-12-29T06:18:08;11.00;99.90
5358;DHT22;2702;51.014;7.170;2022-12-29T06:20:34;11.00;99.90
5358;DHT22;2702;51.014;7.170;2022-12-29T06:23:00;10.90;99.90
5358;DHT22;2702;51.014;7.170;2022-12-29T06:25:25;10.90;99.90
5358;DHT22;2702;51.014;7.170;2022-12-29T06:27:51;10.90;99.90
5358;DHT22;2702;51.014;7.170;2022-12-29T06:30:17;10.90;99.90
5358;DHT22;2702;51.014;7.170;2022-12-29T06:32:43;10.90;99.90
5358;DHT22;2702;51.014;7.170;2022-12-29T07:04:53;9.90;99.90
5358;DHT22;2702;51.014;7.170;2022-12-29T07:07:20;9.90;99.90
5358;DHT22;2702;51.014;7.170;2022-12-29T07:09:46;10.00;99.90
5358;DHT22;2702;51.014;7.170;2022-12-29T07:12:12;10.10;99.90
5358;DHT22;2702;51.014;7.170;2022-12-29T07:14:38;10.20;99.90
5358;DHT22;2702;51.014;7.170;2022-12-29T07:17:05;10.30;99.90
5358;DHT22;2702;51.014;7.170;2022-12-29T07:19:32;10.50;99.90
5358;DHT22;2702;51.014;7.170;2022-12-29T07:21:59;10.50;99.90
5358;DHT22;2702;51.014;7.170;2022-12-29T07:24:25;10.60;99.90
5358;DHT22;2702;51.014;7.170;2022-12-29T07:26:53;10.60;99.90
5358;DHT22;2702;51.014;7.170;2022-12-29T07:29:19;10.60;99.90
5358;DHT22;2702;51.014;7.170;2022-12-29T07:31:45;10.70;99.90
5358;DHT22;2702;51.014;7.170;2022-12-29T07:34:11;10.70;99.90
5358;DHT22;2702;51.014;7.170;2022-12-29T11:18:46;10.00;99.90
5358;DHT22;2702;51.014;7.170;2022-12-29T11:21:26;10.10;99.90
5358;DHT22;2702;51.014;7.170;2022-12-29T11:24:17;10.30;99.90
5358;DHT22;2702;51.014;7.170;2022-12-29T11:26:44;10.40;99.90
5358;DHT22;2702;51.014;7.170;2022-12-29T11:31:48;10.60;99.90
5358;DHT22;2702;51.014;7.170;2022-12-29T11:36:49;10.70;99.90
5358;DHT22;2702;51.014;7.170;2022-12-29T11:39:50;10.70;99.90
5358;DHT22;2702;51.014;7.170;2022-12-29T11:42:17;10.60;99.90
5358;DHT22;2702;51.014;7.170;2022-12-29T11:44:46;10.70;99.90
5358;DHT22;2702;51.014;7.170;2022-12-29T11:47:27;10.60;99.90
5358;DHT22;2702;51.014;7.170;2022-12-29T11:49:57;10.70;99.90
5358;DHT22;2702;51.014;7.170;2022-12-29T11:52:27;10.70;99.90
5358;DHT22;2702;51.014;7.170;2022-12-29T11:54:55;10.60;99.90
5358;DHT22;2702;51.014;7.170;2022-12-29T11:57:23;10.60;99.90
5358;DHT22;2702;51.014;7.170;2022-12-29T11:59:54;10.60;99.90
5358;DHT22;2702;51.014;7.170;2022-12-29T12:05:40;10.60;99.90
5358;DHT22;2702;51.014;7.170;2022-12-29T12:11:03;10.50;99.90
5358;DHT22;2702;51.014;7.170;2022-12-29T12:13:43;10.60;99.90
5358;DHT22;2702;51.014;7.170;2022-12-29T12:16:37;10.50;99.90
5358;DHT22;2702;51.014;7.170;2022-12-29T12:21:50;10.50;99.90
5358;DHT22;2702;51.014;7.170;2022-12-29T12:27:20;10.70;99.90
5358;DHT22;2702;51.014;7.170;2022-12-29T12:29:52;10.60;99.90
5358;DHT22;2702;51.014;7.170;2022-12-29T12:32:46;10.60;99.90
5358;DHT22;2702;51.014;7.170;2022-12-29T12:35:22;10.50;99.90
5358;DHT22;2702;51.014;7.170;2022-12-29T13:00:12;10.50;99.90
5358;DHT22;2702;51.014;7.170;2022-12-29T13:11:55;10.50;99.90
5358;DHT22;2702;51.014;7.170;2022-12-29T13:25:59;10.50;99.90
5358;DHT22;2702;51.014;7.170;2022-12-29T13:31:15;10.50;99.90
5358;DHT22;2702;51.014;7.170;2022-12-29T13:36:53;10.40;99.90
5358;DHT22;2702;51.014;7.170;2022-12-29T13:42:09;10.20;99.90
5358;DHT22;2702;51.014;7.170;2022-12-29T13:44:42;10.30;99.90
5358;DHT22;2702;51.014;7.170;2022-12-29T13:47:33;10.30;99.90
5358;DHT22;2702;51.014;7.170;2022-12-29T13:50:04;10.30;99.90
5358;DHT22;2702;51.014;7.170;2022-12-29T13:52:36;10.30;99.90
5358;DHT22;2702;51.014;7.170;2022-12-29T13:55:29;10.30;99.90
5358;DHT22;2702;51.014;7.170;2022-12-29T14:00:57;10.30;99.90
5358;DHT22;2702;51.014;7.170;2022-12-29T14:03:51;10.40;99.90
5358;DHT22;2702;51.014;7.170;2022-12-29T14:06:32;10.30;99.90
5358;DHT22;2702;51.014;7.170;2022-12-29T14:09:02;10.30;99.90
5358;DHT22;2702;51.014;7.170;2022-12-29T14:13:57;10.20;99.90
5358;DHT22;2702;51.014;7.170;2022-12-29T14:16:36;10.20;99.90
5358;DHT22;2702;51.014;7.170;2022-12-29T14:19:19;10.20;99.90
5358;DHT22;2702;51.014;7.170;2022-12-29T14:22:01;10.10;99.90
5358;DHT22;2702;51.014;7.170;2022-12-29T14:29:43;10.10;99.90
5358;DHT22;2702;51.014;7.170;2022-12-29T14:34:52;10.00;99.90
5358;DHT22;2702;51.014;7.170;2022-12-29T14:40:18;9.90;99.90
5358;DHT22;2702;51.014;7.170;2022-12-29T14:42:49;9.90;99.90
5358;DHT22;2702;51.014;7.170;2022-12-29T14:47:48;9.90;99.90
5358;DHT22;2702;51.014;7.170;2022-12-29T14:52:56;9.90;99.90
5358;DHT22;2702;51.014;7.170;2022-12-29T14:58:07;9.90;99.90
5358;DHT22;2702;51.014;7.170;2022-12-29T15:00:37;10.00;99.90
5358;DHT22;2702;51.014;7.170;2022-12-29T15:03:18;10.00;99.90
5358;DHT22;2702;51.014;7.170;2022-12-29T15:05:52;10.00;99.90
5358;DHT22;2702;51.014;7.170;2022-12-29T15:08:27;9.90;99.90
5358;DHT22;2702;51.014;7.170;2022-12-29T15:10:58;10.00;99.90
5358;DHT22;2702;51.014;7.170;2022-12-29T15:13:45;9.90;99.90
5358;DHT22;2702;51.014;7.170;2022-12-29T15:16:23;10.00;99.90
5358;DHT22;2702;51.014;7.170;2022-12-29T15:18:50;10.00;99.90
5358;DHT22;2702;51.014;7.170;2022-12-29T15:21:16;9.90;99.90
5358;DHT22;2702;51.014;7.170;2022-12-29T15:23:44;10.00;99.90
5358;DHT22;2702;51.014;7.170;2022-12-29T15:26:11;10.00;99.90
5358;DHT22;2702;51.014;7.170;2022-12-29T15:28:41;9.90;99.90
5358;DHT22;2702;51.014;7.170;2022-12-29T15:31:19;10.00;99.90
5358;DHT22;2702;51.014;7.170;2022-12-29T15:33:49;10.00;99.90
5358;DHT22;2702;51.014;7.170;2022-12-29T15:36:25;9.90;99.90
5358;DHT22;2702;51.014;7.170;2022-12-29T15:38:52;10.00;99.90
5358;DHT22;2702;51.014;7.170;2022-12-29T15:41:42;9.90;99.90
5358;DHT22;2702;51.014;7.170;2022-12-29T15:44:40;9.80;99.90
5358;DHT22;2702;51.014;7.170;2022-12-29T15:47:18;9.70;99.90
5358;DHT22;2702;51.014;7.170;2022-12-29T15:49:52;9.80;99.90
5358;DHT22;2702;51.014;7.170;2022-12-29T15:52:20;9.70;99.90
5358;DHT22;2702;51.014;7.170;2022-12-29T15:54:49;9.60;99.90
5358;DHT22;2702;51.014;7.170;2022-12-29T15:57:29;9.60;99.90
5358;DHT22;2702;51.014;7.170;2022-12-29T15:59:56;9.60;99.90
5358;DHT22;2702;51.014;7.170;2022-12-29T16:02:23;9.70;99.90
5358;DHT22;2702;51.014;7.170;2022-12-29T16:04:50;9.70;99.90
5358;DHT22;2702;51.014;7.170;2022-12-29T16:07:52;9.60;99.90
5358;DHT22;2702;51.014;7.170;2022-12-29T16:10:31;9.50;99.90
5358;DHT22;2702;51.014;7.170;2022-12-29T16:13:15;9.50;99.90
5358;DHT22;2702;51.014;7.170;2022-12-29T16:15:46;9.30;99.90
5358;DHT22;2702;51.014;7.170;2022-12-29T16:18:35;9.30;99.90
5358;DHT22;2702;51.014;7.170;2022-12-29T16:21:04;9.30;99.90
5358;DHT22;2702;51.014;7.170;2022-12-29T16:23:31;9.10;99.90
5358;DHT22;2702;51.014;7.170;2022-12-29T16:25:58;9.20;99.90
5358;DHT22;2702;51.014;7.170;2022-12-29T16:28:35;9.20;99.90
5358;DHT22;2702;51.014;7.170;2022-12-29T16:31:06;9.20;99.90
5358;DHT22;2702;51.014;7.170;2022-12-29T16:33:48;9.10;99.90
5358;DHT22;2702;51.014;7.170;2022-12-29T16:41:33;9.20;99.90
5358;DHT22;2702;51.014;7.170;2022-12-29T16:44:19;9.10;99.90
5358;DHT22;2702;51.014;7.170;2022-12-29T16:49:25;9.10;99.90
5358;DHT22;2702;51.014;7.170;2022-12-29T16:51:53;9.00;99.90
5358;DHT22;2702;51.014;7.170;2022-12-29T16:54:33;8.90;99.90
5358;DHT22;2702;51.014;7.170;2022-12-29T16:57:00;8.90;99.90
5358;DHT22;2702;51.014;7.170;2022-12-29T16:59:35;8.90;99.90
5358;DHT22;2702;51.014;7.170;2022-12-29T17:02:14;8.80;99.90
5358;DHT22;2702;51.014;7.170;2022-12-29T17:04:41;8.80;99.90
5358;DHT22;2702;51.014;7.170;2022-12-29T17:07:17;8.80;99.90
5358;DHT22;2702;51.014;7.170;2022-12-29T17:09:44;8.80;99.90
5358;DHT22;2702;51.014;7.170;2022-12-29T17:12:17;8.80;99.90
5358;DHT22;2702;51.014;7.170;2022-12-29T17:14:55;8.80;99.90
5358;DHT22;2702;51.014;7.170;2022-12-29T17:17:39;8.80;99.90
5358;DHT22;2702;51.014;7.170;2022-12-29T17:20:21;8.70;99.90
5358;DHT22;2702;51.014;7.170;2022-12-29T17:22:48;8.60;99.90
5358;DHT22;2702;51.014;7.170;2022-12-29T17:25:22;8.70;99.90
5358;DHT22;2702;51.014;7.170;2022-12-29T17:28:00;8.70;99.90
5358;DHT22;2702;51.014;7.170;2022-12-29T17:30:28;8.60;99.90
5358;DHT22;2702;51.014;7.170;2022-12-29T17:33:01;8.60;99.90
5358;DHT22;2702;51.014;7.170;2022-12-29T17:35:28;8.70;99.90
5358;DHT22;2702;51.014;7.170;2022-12-29T17:37:54;8.60;99.90
5358;DHT22;2702;51.014;7.170;2022-12-29T17:40:28;8.60;99.90
5358;DHT22;2702;51.014;7.170;2022-12-29T17:42:57;8.60;99.90
5358;DHT22;2702;51.014;7.170;2022-12-29T17:45:25;8.70;99.90
5358;DHT22;2702;51.014;7.170;2022-12-29T17:47:51;8.60;99.90
5358;DHT22;2702;51.014;7.170;2022-12-29T17:50:23;8.60;99.90
5358;DHT22;2702;51.014;7.170;2022-12-29T17:53:04;8.60;99.90
5358;DHT22;2702;51.014;7.170;2022-12-29T17:55:31;8.70;99.90
5358;DHT22;2702;51.014;7.170;2022-12-29T17:57:57;8.60;99.90
5358;DHT22;2702;51.014;7.170;2022-12-29T18:00:25;8.70;99.90
5358;DHT22;2702;51.014;7.170;2022-12-29T18:02:53;8.70;99.90
5358;DHT22;2702;51.014;7.170;2022-12-29T18:05:22;8.60;99.90
5358;DHT22;2702;51.014;7.170;2022-12-29T18:07:51;8.60;99.90
5358;DHT22;2702;51.014;7.170;2022-12-29T18:10:17;8.60;99.90
5358;DHT22;2702;51.014;7.170;2022-12-29T18:12:46;8.60;99.90
5358;DHT22;2702;51.014;7.170;2022-12-29T18:15:20;8.60;99.90
5358;DHT22;2702;51.014;7.170;2022-12-29T18:17:46;8.60;99.90
5358;DHT22;2702;51.014;7.170;2022-12-29T18:20:13;8.60;99.90
5358;DHT22;2702;51.014;7.170;2022-12-29T18:22:39;8.60;99.90
5358;DHT22;2702;51.014;7.170;2022-12-29T18:25:21;8.60;99.90
5358;DHT22;2702;51.014;7.170;2022-12-29T18:27:48;8.60;99.90
5358;DHT22;2702;51.014;7.170;2022-12-29T18:30:13;8.60;99.90
5358;DHT22;2702;51.014;7.170;2022-12-29T18:32:39;8.50;99.90
5358;DHT22;2702;51.014;7.170;2022-12-29T18:35:27;8.50;99.90
5358;DHT22;2702;51.014;7.170;2022-12-29T18:37:54;8.50;99.90
5358;DHT22;2702;51.014;7.170;2022-12-29T18:40:20;8.40;99.90
5358;DHT22;2702;51.014;7.170;2022-12-29T18:42:46;8.50;99.90
5358;DHT22;2702;51.014;7.170;2022-12-29T18:45:21;8.50;99.90
5358;DHT22;2702;51.014;7.170;2022-12-29T18:47:47;8.40;99.90
5358;DHT22;2702;51.014;7.170;2022-12-29T18:50:14;8.20;99.90
5358;DHT22;2702;51.014;7.170;2022-12-29T18:52:40;8.20;99.90
5358;DHT22;2702;51.014;7.170;2022-12-29T18:55:15;8.20;99.90
5358;DHT22;2702;51.014;7.170;2022-12-29T18:57:42;8.00;99.90
5358;DHT22;2702;51.014;7.170;2022-12-29T19:00:09;8.10;99.90
5358;DHT22;2702;51.014;7.170;2022-12-29T19:02:35;8.10;99.90
5358;DHT22;2702;51.014;7.170;2022-12-29T19:05:01;8.10;99.90
5358;DHT22;2702;51.014;7.170;2022-12-29T19:07:27;8.10;99.90
5358;DHT22;2702;51.014;7.170;2022-12-29T19:09:53;8.10;99.90
5358;DHT22;2702;51.014;7.170;2022-12-29T19:12:19;8.20;99.90
5358;DHT22;2702;51.014;7.170;2022-12-29T19:14:45;8.20;99.90
5358;DHT22;2702;51.014;7.170;2022-12-29T19:17:11;8.20;99.90
5358;DHT22;2702;51.014;7.170;2022-12-29T19:19:40;8.20;99.90
5358;DHT22;2702;51.014;7.170;2022-12-29T19:22:08;8.20;99.90
5358;DHT22;2702;51.014;7.170;2022-12-29T19:24:34;8.20;99.90
5358;DHT22;2702;51.014;7.170;2022-12-29T19:27:00;8.20;99.90
5358;DHT22;2702;51.014;7.170;2022-12-29T19:29:25;8.20;99.90
5358;DHT22;2702;51.014;7.170;2022-12-29T19:31:53;7.90;99.90
5358;DHT22;2702;51.014;7.170;2022-12-29T19:34:19;8.00;99.90
5358;DHT22;2702;51.014;7.170;2022-12-29T19:36:44;8.10;99.90
5358;DHT22;2702;51.014;7.170;2022-12-29T19:39:11;8.10;99.90
5358;DHT22;2702;51.014;7.170;2022-12-29T19:41:37;8.00;99.90
5358;DHT22;2702;51.014;7.170;2022-12-29T19:44:03;8.10;99.90
5358;DHT22;2702;51.014;7.170;2022-12-29T19:46:29;8.10;99.90
5358;DHT22;2702;51.014;7.170;2022-12-29T19:48:56;8.00;99.90
5358;DHT22;2702;51.014;7.170;2022-12-29T19:51:23;8.00;99.90
5358;DHT22;2702;51.014;7.170;2022-12-29T19:53:49;7.90;99.90
5358;DHT22;2702;51.014;7.170;2022-12-29T19:56:15;7.90;99.90
5358;DHT22;2702;51.014;7.170;2022-12-29T19:58:42;8.00;99.90
5358;DHT22;2702;51.014;7.170;2022-12-29T20:01:17;7.90;99.90
5358;DHT22;2702;51.014;7.170;2022-12-29T20:03:44;7.80;99.90
5358;DHT22;2702;51.014;7.170;2022-12-29T20:06:11;7.70;99.90
5358;DHT22;2702;51.014;7.170;2022-12-29T20:08:38;7.60;99.90
5358;DHT22;2702;51.014;7.170;2022-12-29T20:13:33;7.50;99.90
5358;DHT22;2702;51.014;7.170;2022-12-29T20:16:02;7.50;99.90
5358;DHT22;2702;51.014;7.170;2022-12-29T20:18:28;7.50;99.90
5358;DHT22;2702;51.014;7.170;2022-12-29T20:21:06;7.50;99.90
5358;DHT22;2702;51.014;7.170;2022-12-29T20:23:33;7.40;99.90
5358;DHT22;2702;51.014;7.170;2022-12-29T20:26:01;7.40;99.90
5358;DHT22;2702;51.014;7.170;2022-12-29T20:28:28;7.50;99.90
5358;DHT22;2702;51.014;7.170;2022-12-29T20:31:03;7.50;99.90
5358;DHT22;2702;51.014;7.170;2022-12-29T20:33:32;7.60;99.90
5358;DHT22;2702;51.014;7.170;2022-12-29T20:36:07;7.60;99.90
5358;DHT22;2702;51.014;7.170;2022-12-29T20:38:35;7.50;99.90
5358;DHT22;2702;51.014;7.170;2022-12-29T20:41:01;7.40;99.90
5358;DHT22;2702;51.014;7.170;2022-12-29T20:43:27;7.50;99.90
5358;DHT22;2702;51.014;7.170;2022-12-29T20:45:53;7.50;99.90
5358;DHT22;2702;51.014;7.170;2022-12-29T20:48:19;7.60;99.90
5358;DHT22;2702;51.014;7.170;2022-12-29T20:50:45;7.50;99.90
5358;DHT22;2702;51.014;7.170;2022-12-29T20:53:10;7.50;99.90
5358;DHT22;2702;51.014;7.170;2022-12-29T20:55:37;7.50;99.90
5358;DHT22;2702;51.014;7.170;2022-12-29T20:58:04;7.50;99.90
5358;DHT22;2702;51.014;7.170;2022-12-29T21:00:31;7.40;99.90
5358;DHT22;2702;51.014;7.170;2022-12-29T21:02:59;7.40;99.90
5358;DHT22;2702;51.014;7.170;2022-12-29T21:05:26;7.40;99.90
5358;DHT22;2702;51.014;7.170;2022-12-29T21:07:52;7.20;99.90
5358;DHT22;2702;51.014;7.170;2022-12-29T21:10:18;7.20;99.90
5358;DHT22;2702;51.014;7.170;2022-12-29T21:12:45;7.00;99.90
5358;DHT22;2702;51.014;7.170;2022-12-29T21:15:11;7.10;99.90
5358;DHT22;2702;51.014;7.170;2022-12-29T21:17:39;7.20;99.90
5358;DHT22;2702;51.014;7.170;2022-12-29T21:20:05;7.10;99.90
5358;DHT22;2702;51.014;7.170;2022-12-29T21:22:31;7.20;99.90
5358;DHT22;2702;51.014;7.170;2022-12-29T21:24:56;7.20;99.90
5358;DHT22;2702;51.014;7.170;2022-12-29T21:27:22;7.20;99.90
5358;DHT22;2702;51.014;7.170;2022-12-29T21:29:48;7.10;99.90
5358;DHT22;2702;51.014;7.170;2022-12-29T21:32:14;7.10;99.90
5358;DHT22;2702;51.014;7.170;2022-12-29T21:34:40;7.10;99.90
5358;DHT22;2702;51.014;7.170;2022-12-29T21:37:05;7.10;99.90
5358;DHT22;2702;51.014;7.170;2022-12-29T21:39:31;7.00;99.90
5358;DHT22;2702;51.014;7.170;2022-12-29T21:41:57;6.90;99.90
5358;DHT22;2702;51.014;7.170;2022-12-29T21:44:25;6.90;99.90
5358;DHT22;2702;51.014;7.170;2022-12-29T21:47:10;6.80;99.90
5358;DHT22;2702;51.014;7.170;2022-12-29T21:49:36;6.80;99.90
5358;DHT22;2702;51.014;7.170;2022-12-29T21:52:01;6.90;99.90
5358;DHT22;2702;51.014;7.170;2022-12-29T21:54:29;6.80;99.90
5358;DHT22;2702;51.014;7.170;2022-12-29T21:57:16;6.90;99.90
5358;DHT22;2702;51.014;7.170;2022-12-29T22:00:07;6.90;99.90
5358;DHT22;2702;51.014;7.170;2022-12-29T22:02:53;6.90;99.90
5358;DHT22;2702;51.014;7.170;2022-12-29T22:05:37;6.90;99.90
5358;DHT22;2702;51.014;7.170;2022-12-29T22:08:25;6.90;99.90
5358;DHT22;2702;51.014;7.170;2022-12-29T22:11:09;6.80;99.90
5358;DHT22;2702;51.014;7.170;2022-12-29T22:13:53;6.80;99.90
5358;DHT22;2702;51.014;7.170;2022-12-29T22:16:22;6.70;99.90
5358;DHT22;2702;51.014;7.170;2022-12-29T22:18:48;6.60;99.90
5358;DHT22;2702;51.014;7.170;2022-12-29T22:21:14;6.70;99.90
5358;DHT22;2702;51.014;7.170;2022-12-29T22:23:40;6.60;99.90
5358;DHT22;2702;51.014;7.170;2022-12-29T22:26:08;6.60;99.90
5358;DHT22;2702;51.014;7.170;2022-12-29T22:28:36;6.60;99.90
5358;DHT22;2702;51.014;7.170;2022-12-29T22:31:16;6.60;99.90
5358;DHT22;2702;51.014;7.170;2022-12-29T22:33:45;6.60;99.90
5358;DHT22;2702;51.014;7.170;2022-12-29T22:36:11;6.60;99.90
5358;DHT22;2702;51.014;7.170;2022-12-29T22:38:37;6.70;99.90
5358;DHT22;2702;51.014;7.170;2022-12-29T22:41:03;6.60;99.90
5358;DHT22;2702;51.014;7.170;2022-12-29T22:43:29;6.50;99.90
5358;DHT22;2702;51.014;7.170;2022-12-29T22:46:01;6.60;99.90
5358;DHT22;2702;51.014;7.170;2022-12-29T22:48:31;6.50;99.90
5358;DHT22;2702;51.014;7.170;2022-12-29T22:50:57;6.50;99.90
5358;DHT22;2702;51.014;7.170;2022-12-29T22:53:23;6.50;99.90
5358;DHT22;2702;51.014;7.170;2022-12-29T22:55:49;6.40;99.90
5358;DHT22;2702;51.014;7.170;2022-12-29T22:58:15;6.50;99.90
5358;DHT22;2702;51.014;7.170;2022-12-29T23:00:41;6.50;99.90
5358;DHT22;2702;51.014;7.170;2022-12-29T23:03:06;6.50;99.90
5358;DHT22;2702;51.014;7.170;2022-12-29T23:05:32;6.50;99.90
5358;DHT22;2702;51.014;7.170;2022-12-29T23:07:59;6.40;99.90
5358;DHT22;2702;51.014;7.170;2022-12-29T23:10:25;6.40;99.90
5358;DHT22;2702;51.014;7.170;2022-12-29T23:12:51;6.40;99.90
5358;DHT22;2702;51.014;7.170;2022-12-29T23:15:17;6.40;99.90
5358;DHT22;2702;51.014;7.170;2022-12-29T23:17:43;6.40;99.90
5358;DHT22;2702;51.014;7.170;2022-12-29T23:20:09;6.40;99.90
5358;DHT22;2702;51.014;7.170;2022-12-29T23:22:35;6.40;99.90
5358;DHT22;2702;51.014;7.170;2022-12-29T23:25:00;6.40;99.90
5358;DHT22;2702;51.014;7.170;2022-12-29T23:27:26;6.40;99.90
5358;DHT22;2702;51.014;7.170;2022-12-29T23:29:52;6.40;99.90
5358;DHT22;2702;51.014;7.170;2022-12-29T23:32:18;6.30;99.90
5358;DHT22;2702;51.014;7.170;2022-12-29T23:34:44;6.40;99.90
5358;DHT22;2702;51.014;7.170;2022-12-29T23:37:09;6.40;99.90
5358;DHT22;2702;51.014;7.170;2022-12-29T23:39:35;6.40;99.90
5358;DHT22;2702;51.014;7.170;2022-12-29T23:42:01;6.40;99.90
5358;DHT22;2702;51.014;7.170;2022-12-29T23:44:27;6.40;99.90
5358;DHT22;2702;51.014;7.170;2022-12-29T23:46:53;6.40;99.90
5358;DHT22;2702;51.014;7.170;2022-12-29T23:49:18;6.40;99.90
5358;DHT22;2702;51.014;7.170;2022-12-29T23:51:44;6.40;99.90
5358;DHT22;2702;51.014;7.170;2022-12-29T23:54:10;6.40;99.90
5358;DHT22;2702;51.014;7.170;2022-12-29T23:56:36;6.40;99.90
5358;DHT22;2702;51.014;7.170;2022-12-29T23:59:03;6.40;99.90
